Dades meteomassalio
Diari Summary for Agost 1, 2017 Units:  Metric    English   Both
« Previous Day
Next Day »
Diari Semanal Mensual Anual Personalitzat
  Maxima: Minima: Mijana:
Temperatura: -17.8 °C -6.4 °C -3.4 °C
Rosada: -17.8 °C -9.1 °C -8.3 °C
Humitat: Humidity % 37 % 59 %
Velocitat del vent: 0 km/h 0 km/h 9 km/h
Racha vent: 0 km/h - -
Vent:- - South
Pressio: 0 hPa 34097 hPa -
Pluja: 0 mm    
Historical Graphs
 
 
Tabular Data for Agost 1, 2017
Time Temperature Dew Point Pressure Wind Wind Speed Wind Gust Humidity Rainfall Rate (Hourly) solar Conditions
-17.8 °C -17.8 °C 0 hPa Calm     Humidity % 0 mm SolarRadiationWatts/m^2 W/m2 Conditions
00:04 -2.8 °C -8.9 °C 34097 hPa Calm     51 % 0 mm 0.0 W/m2 CLR
00:09 -2.9 °C -8.8 °C 34097 hPa Calm     52 % 0 mm 0.0 W/m2 CLR
00:14 -2.9 °C -8.8 °C 34097 hPa Calm     52 % 0 mm 0.0 W/m2 CLR
00:20 -3 °C -8.9 °C 34097 hPa Calm     52 % 0 mm 0.0 W/m2 CLR
00:25 -3.1 °C -8.8 °C 34097 hPa Calm     53 % 0 mm 0.0 W/m2 CLR
00:30 -3 °C -8.8 °C 34097 hPa ENE 9 km/h   53 % 0 mm 0.0 W/m2 CLR
00:35 -2.9 °C -8.7 °C 34097 hPa Calm     53 % 0 mm 0.0 W/m2 CLR
00:40 -2.9 °C -8.7 °C 34107.2 hPa Calm     53 % 0 mm 0.0 W/m2 CLR
00:45 -3 °C -8.4 °C 34107.2 hPa Calm     55 % 0 mm 0.0 W/m2 CLR
00:50 -3.2 °C -8.3 °C 34107.2 hPa Calm     57 % 0 mm 0.0 W/m2 CLR
00:55 -3.3 °C -8.3 °C 34107.2 hPa North 9 km/h 9 km/h 58 % 0 mm 0.0 W/m2 CLR
01:00 -3.5 °C -8 °C 34120.7 hPa NNW 20.9 km/h 20.9 km/h 61 % 0 mm 0.0 W/m2 CLR
01:05 -3.7 °C -8.3 °C 34130.9 hPa NNW 26.9 km/h 26.9 km/h 60 % 0 mm 0.0 W/m2 CLR
01:10 -3.7 °C -8.1 °C 34130.9 hPa Calm     62 % 0 mm 0.0 W/m2 CLR
01:15 -3.7 °C -7.7 °C 34130.9 hPa NNW 15 km/h 16.3 km/h 65 % 0 mm 0.0 W/m2 CLR
01:20 -3.8 °C -7.7 °C 34144.4 hPa NW 17.9 km/h 17.9 km/h 65 % 0 mm 0.0 W/m2 CLR
01:25 -3.8 °C -7.8 °C 34120.7 hPa Calm     65 % 0 mm 0.0 W/m2 CLR
01:30 -3.8 °C -7.6 °C 34120.7 hPa Calm     66 % 0 mm 0.0 W/m2 CLR
01:35 -3.9 °C -7.7 °C 34130.9 hPa NNE 17.9 km/h 17.9 km/h 66 % 0 mm 0.0 W/m2 CLR
01:40 -4.1 °C -7.4 °C 34130.9 hPa NE 23.8 km/h 23.8 km/h 69 % 0 mm 0.0 W/m2 CLR
01:45 -4.1 °C -7.2 °C 34144.4 hPa Calm     71 % 0 mm 0.0 W/m2 CLR
01:50 -4.1 °C -7.1 °C 34144.4 hPa Calm     72 % 0 mm 0.0 W/m2 CLR
01:55 -4.2 °C -7.2 °C 34144.4 hPa Calm     72 % 0 mm 0.0 W/m2 CLR
02:00 -4.2 °C -7.2 °C 34144.4 hPa WSW 9 km/h 9 km/h 72 % 0 mm 0.0 W/m2 CLR
02:04 -4.2 °C -7.3 °C 34144.4 hPa NW 11.9 km/h 11.9 km/h 71 % 0 mm 0.0 W/m2 CLR
02:05 -4.2 °C -7.3 °C 34144.4 hPa WNW 9 km/h 9 km/h 71 % 0 mm 0.0 W/m2 CLR
02:10 -3.9 °C -7.2 °C 34154.6 hPa West 17.9 km/h 17.9 km/h 70 % 0 mm 0.0 W/m2 CLR
02:15 -3.7 °C -7.2 °C 34164.7 hPa Calm     68 % 0 mm 0.0 W/m2 CLR
02:20 -3.6 °C -7.1 °C 34164.7 hPa WNW 9 km/h 9 km/h 68 % 0 mm 0.0 W/m2 CLR
02:25 -3.7 °C -7.1 °C 34164.7 hPa West 17.9 km/h 17.9 km/h 69 % 0 mm 0.0 W/m2 CLR
02:30 -3.7 °C -6.8 °C 34178.3 hPa West 29.8 km/h 29.8 km/h 71 % 0 mm 0.0 W/m2 CLR
02:35 -3.7 °C -6.8 °C 34164.7 hPa West 15 km/h 15 km/h 71 % 0 mm 0.0 W/m2 CLR
02:40 -3.8 °C -6.8 °C 34178.3 hPa WNW 18.2 km/h 18.2 km/h 72 % 0 mm 0.0 W/m2 CLR
02:45 -3.9 °C -6.8 °C 34178.3 hPa Calm     73 % 0 mm 0.0 W/m2 CLR
02:50 -4 °C -6.8 °C 34178.3 hPa West 9 km/h 9 km/h 73 % 0 mm 0.0 W/m2 CLR
02:55 -4.1 °C -7.3 °C 34178.3 hPa WSW 23.3 km/h 23.3 km/h 70 % 0 mm 0.0 W/m2 CLR
03:00 -4.2 °C -7.6 °C 34178.3 hPa West 20.9 km/h 20.9 km/h 69 % 0 mm 0.0 W/m2 CLR
03:05 -4.2 °C -7.7 °C 34178.3 hPa Calm     68 % 0 mm 0.0 W/m2 CLR
03:10 -4.3 °C -7.9 °C 34188.4 hPa Calm     67 % 0 mm 0.0 W/m2 CLR
03:15 -4.4 °C -8.2 °C 34188.4 hPa Calm     66 % 0 mm 0.0 W/m2 CLR
03:20 -4.5 °C -8.2 °C 34188.4 hPa WNW 17.9 km/h 17.9 km/h 66 % 0 mm 0.0 W/m2 CLR
03:25 -4.6 °C -8.3 °C 34188.4 hPa WNW 18.2 km/h 18.2 km/h 66 % 0 mm 0.0 W/m2 CLR
03:30 -4.7 °C -8.4 °C 34188.4 hPa Calm     66 % 0 mm 0.0 W/m2 CLR
03:35 -4.7 °C -8.4 °C 34178.3 hPa Calm     66 % 0 mm 0.0 W/m2 CLR
03:40 -4.8 °C -8.4 °C 34178.3 hPa Calm     67 % 0 mm 0.0 W/m2 CLR
03:45 -4.9 °C -8.4 °C 34178.3 hPa Calm     67 % 0 mm 0.0 W/m2 CLR
03:50 -4.9 °C -8.5 °C 34178.3 hPa Calm     67 % 0 mm 0.0 W/m2 CLR
03:55 -5.1 °C -8.5 °C 34178.3 hPa Calm     68 % 0 mm 0.0 W/m2 CLR
04:00 -5.1 °C -8.6 °C 34178.3 hPa Calm     68 % 0 mm 0.0 W/m2 CLR
04:05 -5.2 °C -8.6 °C 34164.7 hPa Calm     68 % 0 mm 0.0 W/m2 CLR
04:10 -5.2 °C -8.7 °C 34178.3 hPa Calm     68 % 0 mm 0.0 W/m2 CLR
04:15 -5.2 °C -8.7 °C 34178.3 hPa Calm     68 % 0 mm 0.0 W/m2 CLR
04:20 -5.3 °C -8.8 °C 34178.3 hPa Calm     68 % 0 mm 0.0 W/m2 CLR
04:25 -5.3 °C -8.8 °C 34178.3 hPa Calm     68 % 0 mm 0.0 W/m2 CLR
04:30 -5.3 °C -8.8 °C 34178.3 hPa Calm     68 % 0 mm 0.0 W/m2 CLR
04:35 -5.4 °C -8.8 °C 34178.3 hPa Calm     68 % 0 mm 0.0 W/m2 CLR
04:40 -5.4 °C -8.8 °C 34178.3 hPa Calm     68 % 0 mm 0.0 W/m2 CLR
04:45 -5.4 °C -8.9 °C 34178.3 hPa Calm     68 % 0 mm 0.0 W/m2 CLR
04:50 -5.5 °C -8.9 °C 34188.4 hPa Calm     68 % 0 mm 0.0 W/m2 CLR
04:55 -5.5 °C -8.9 °C 34188.4 hPa Calm     68 % 0 mm 0.0 W/m2 CLR
05:00 -5.6 °C -8.8 °C 34188.4 hPa Calm     69 % 0 mm 0.0 W/m2 CLR
05:05 -5.6 °C -8.9 °C 34188.4 hPa Calm     69 % 0 mm 0.0 W/m2 CLR
05:10 -5.7 °C -8.9 °C 34188.4 hPa Calm     69 % 0 mm 0.0 W/m2 CLR
05:15 -5.7 °C -8.8 °C 34198.6 hPa Calm     70 % 0 mm 0.0 W/m2 CLR
05:20 -5.7 °C -8.9 °C 34198.6 hPa Calm     70 % 0 mm 0.0 W/m2 CLR
05:25 -5.8 °C -9 °C 34198.6 hPa Calm     70 % 0 mm 0.0 W/m2 CLR
05:30 -5.8 °C -9 °C 34198.6 hPa Calm     70 % 0 mm 0.0 W/m2 CLR
05:35 -5.9 °C -9.1 °C 34198.6 hPa Calm     70 % 0 mm 0.0 W/m2 CLR
05:36 -5.9 °C -8.9 °C 34198.6 hPa Calm     71 % 0 mm 0.0 W/m2 CLR
05:41 -5.9 °C -8.9 °C 34198.6 hPa Calm     71 % 0 mm 0.0 W/m2 CLR
05:46 -5.9 °C -8.9 °C 34198.6 hPa Calm     71 % 0 mm 0.0 W/m2 CLR
05:51 -5.9 °C -9 °C 34198.6 hPa Calm     71 % 0 mm 0.0 W/m2 CLR
05:56 -6 °C -9.1 °C 34198.6 hPa Calm     71 % 0 mm 0.0 W/m2 CLR
06:01 -6.1 °C -9.1 °C 34212.1 hPa Calm     71 % 0 mm 0.0 W/m2 CLR
06:06 -6.1 °C -9 °C 34212.1 hPa Calm     72 % 0 mm 0.0 W/m2 CLR
06:11 -6.2 °C -9.1 °C 34212.1 hPa Calm     72 % 0 mm 0.0 W/m2 CLR
06:16 -6.2 °C -9.1 °C 34212.1 hPa Calm     72 % 0 mm 0.0 W/m2 CLR
06:21 -6.2 °C -9.1 °C 34212.1 hPa Calm     72 % 0 mm 0.0 W/m2 CLR
06:26 -6.2 °C -9.1 °C 34212.1 hPa Calm     72 % 0 mm 0.0 W/m2 CLR
06:31 -6.3 °C -9.1 °C 34222.3 hPa Calm     73 % 0 mm 0.0 W/m2 CLR
06:36 -6.3 °C -9 °C 34222.3 hPa Calm     74 % 0 mm 0.0 W/m2 CLR
06:41 -6.4 °C -9.1 °C 34222.3 hPa Calm     74 % 0 mm 0.0 W/m2 CLR
06:46 -6.4 °C -9.1 °C 34222.3 hPa Calm     74 % 0 mm 0.0 W/m2 OVC
06:51 -6.3 °C -9 °C 34222.3 hPa Calm     74 % 0 mm 0.0 W/m2 OVC
06:56 -6.3 °C -9 °C 34222.3 hPa West 9 km/h 9 km/h 74 % 0 mm 0.0 W/m2 OVC
07:02 -6.3 °C -9.1 °C 34222.3 hPa Calm     73 % 0 mm 5.0 W/m2 OVC
07:07 -6.3 °C -9.1 °C 34222.3 hPa Calm     73 % 0 mm 7.0 W/m2 BKN
07:12 -6.3 °C -9.1 °C 34222.3 hPa Calm     73 % 0 mm 12.0 W/m2 BKN
07:17 -6.3 °C -9.1 °C 34222.3 hPa Calm     73 % 0 mm 18.0 W/m2 BKN
07:22 -6.3 °C -9 °C 34222.3 hPa Calm     74 % 0 mm 23.0 W/m2 BKN
07:27 -6.3 °C -9 °C 34222.3 hPa Calm     74 % 0 mm 25.0 W/m2 BKN
07:32 -6.3 °C -9 °C 34235.8 hPa Calm     74 % 0 mm 26.0 W/m2 BKN
07:37 -6.3 °C -9 °C 34235.8 hPa Calm     74 % 0 mm 32.0 W/m2 BKN
07:42 -6.3 °C -9 °C 34235.8 hPa Calm     74 % 0 mm 37.0 W/m2 BKN
07:47 -6.3 °C -9 °C 34235.8 hPa Calm     74 % 0 mm 47.0 W/m2 BKN
07:52 -6.4 °C -9.1 °C 34235.8 hPa Calm     74 % 0 mm 62.0 W/m2 SCT
07:57 -6.4 °C -9.1 °C 34235.8 hPa Calm     74 % 0 mm 79.0 W/m2 SCT
08:02 -6.4 °C -9.1 °C 34235.8 hPa Calm     74 % 0 mm 91.0 W/m2 FEW
08:07 -6.3 °C -9 °C 34235.8 hPa Calm     74 % 0 mm 111.0 W/m2 CLR
08:12 -6.2 °C -8.9 °C 34235.8 hPa Calm     74 % 0 mm 123.0 W/m2 CLR
08:17 -6.1 °C -8.8 °C 34246 hPa NW 12.9 km/h 12.9 km/h 73 % 0 mm 139.0 W/m2 CLR
08:22 -5.9 °C -8.9 °C 34246 hPa West 10.3 km/h 10.3 km/h 71 % 0 mm 155.0 W/m2 CLR
08:27 -5.8 °C -9.1 °C 34246 hPa West 29.8 km/h 29.8 km/h 69 % 0 mm 178.0 W/m2 CLR
08:32 -5.7 °C -9 °C 34256.2 hPa WNW 15 km/h 15 km/h 69 % 0 mm 192.0 W/m2 CLR
08:37 -5.6 °C -8.9 °C 34246 hPa WNW 17.9 km/h 17.9 km/h 69 % 0 mm 207.0 W/m2 CLR
08:42 -5.6 °C -9 °C 34246 hPa WNW 26.9 km/h 26.9 km/h 68 % 0 mm 223.0 W/m2 CLR
08:47 -5.4 °C -9.1 °C 34256.2 hPa WNW 26.9 km/h 26.9 km/h 67 % 0 mm 244.0 W/m2 CLR
08:52 -5.4 °C -9 °C 34256.2 hPa NW 20.9 km/h 20.9 km/h 67 % 0 mm 220.0 W/m2 CLR
08:57 -5.4 °C -8.9 °C 34256.2 hPa WNW 29.8 km/h 29.8 km/h 67 % 0 mm 172.0 W/m2 CLR
09:02 -5.3 °C -8.9 °C 34256.2 hPa NW 20.9 km/h 20.9 km/h 67 % 0 mm 237.0 W/m2 CLR
09:07 -5.3 °C -9 °C 34256.2 hPa NW 29.8 km/h 29.8 km/h 66 % 0 mm 272.0 W/m2 CLR
09:12 -5.3 °C -8.8 °C 34256.2 hPa NW 15.6 km/h 15.6 km/h 67 % 0 mm 253.0 W/m2 CLR
09:17 -5.2 °C -8.8 °C 34269.7 hPa NNW 20.9 km/h 20.9 km/h 66 % 0 mm 350.0 W/m2 CLR
09:22 -5 °C -8.7 °C 34269.7 hPa SSW 9 km/h 9 km/h 66 % 0 mm 396.0 W/m2 CLR
09:27 -4.9 °C -8.8 °C 34269.7 hPa Calm     65 % 0 mm 345.0 W/m2 CLR
09:32 -4.8 °C -8.8 °C 34269.7 hPa WSW 6 km/h   64 % 0 mm 383.0 W/m2 CLR
09:37 -4.7 °C -8.7 °C 34269.7 hPa Calm     64 % 0 mm 325.0 W/m2 CLR
09:42 -4.6 °C -8.7 °C 34269.7 hPa WSW 15 km/h 15 km/h 63 % 0 mm 512.0 W/m2 CLR
09:47 -4.5 °C -8.8 °C 34269.7 hPa West 11.9 km/h 11.9 km/h 62 % 0 mm 410.0 W/m2 CLR
09:52 -4.4 °C -8.7 °C 34269.7 hPa WNW 15.6 km/h 15.6 km/h 62 % 0 mm 272.0 W/m2 CLR
09:57 -4.3 °C -8.7 °C 34269.7 hPa SW 11.9 km/h 11.9 km/h 62 % 0 mm 448.0 W/m2 CLR
10:02 -4.4 °C -8.7 °C 34269.7 hPa WNW 9 km/h 9 km/h 62 % 0 mm 279.0 W/m2 CLR
10:07 -4.4 °C -8.7 °C 34279.9 hPa West 3.1 km/h   62 % 0 mm 265.0 W/m2 CLR
10:12 -4.3 °C -8.7 °C 34279.9 hPa Calm     62 % 0 mm 237.0 W/m2 CLR
10:17 -4.2 °C -8.7 °C 34293.4 hPa WSW 11.9 km/h 11.9 km/h 61 % 0 mm 561.0 W/m2 CLR
10:22 -4.1 °C -8.6 °C 34293.4 hPa Calm     61 % 0 mm 548.0 W/m2 CLR
10:27 -3.8 °C -8.5 °C 34293.4 hPa Calm     60 % 0 mm 548.0 W/m2 CLR
10:32 -3.7 °C -8.5 °C 34293.4 hPa Calm     59 % 0 mm 490.0 W/m2 CLR
10:37 -3.7 °C -8.4 °C 34293.4 hPa Calm     59 % 0 mm 526.0 W/m2 CLR
10:42 -3.5 °C -8.4 °C 34293.4 hPa Calm     58 % 0 mm 149.0 W/m2 CLR
10:47 -3.5 °C -8.6 °C 34293.4 hPa Calm     57 % 0 mm 128.0 W/m2 CLR
10:52 -3.6 °C -8.5 °C 34293.4 hPa South 3.1 km/h 3.1 km/h 58 % 0 mm 172.0 W/m2 CLR
10:57 -3.6 °C -8.6 °C 34279.9 hPa Calm     58 % 0 mm 325.0 W/m2 CLR
11:02 -3.6 °C -8.5 °C 34279.9 hPa Calm     58 % 0 mm 332.0 W/m2 CLR
11:07 -3.5 °C -8.4 °C 34279.9 hPa North 9 km/h 9 km/h 58 % 0 mm 329.0 W/m2 CLR
11:12 -3.4 °C -8.5 °C 34279.9 hPa North 6 km/h 6 km/h 57 % 0 mm 401.0 W/m2 CLR
11:13 -3.4 °C -8.5 °C 34279.9 hPa NNE 6 km/h   57 % 0 mm 355.0 W/m2 CLR
11:18 -3.4 °C -8.4 °C 34293.4 hPa Calm     57 % 0 mm 605.0 W/m2 CLR
11:23 -3.4 °C -8.4 °C 34279.9 hPa Calm     57 % 0 mm 350.0 W/m2 CLR
11:28 -3.4 °C -8.5 °C 34279.9 hPa Calm     57 % 0 mm 255.0 W/m2 CLR
11:33 -3.4 °C -8.6 °C 34293.4 hPa NW 23.3 km/h 23.3 km/h 57 % 0 mm 315.0 W/m2 CLR
11:38 -3.5 °C -8.4 °C 34303.6 hPa NW 11.9 km/h 11.9 km/h 58 % 0 mm 432.0 W/m2 CLR
11:43 -3.5 °C -8.4 °C 34313.7 hPa WNW 20.9 km/h 20.9 km/h 58 % 0 mm 221.0 W/m2 CLR
11:48 -3.7 °C -8.6 °C 34303.6 hPa NNW 9 km/h 9 km/h 58 % 0 mm 127.0 W/m2 CLR
11:53 -3.8 °C -8.6 °C 34313.7 hPa NW 10.3 km/h 10.3 km/h 59 % 0 mm 91.0 W/m2 CLR
11:58 -3.8 °C -8.6 °C 34293.4 hPa NNE 15 km/h 15 km/h 59 % 0 mm 90.0 W/m2 CLR
12:03 -3.8 °C -8.6 °C 34303.6 hPa Calm     59 % 0 mm 77.0 W/m2 CLR
12:08 -3.8 °C -8.6 °C 34303.6 hPa Calm     59 % 0 mm 95.0 W/m2 FEW
12:13 -3.8 °C -8.6 °C 34279.9 hPa Calm     59 % 0 mm 176.0 W/m2 CLR
12:18 -3.8 °C -8.6 °C 34293.4 hPa Calm     59 % 0 mm 199.0 W/m2 CLR
12:23 -3.8 °C -8.6 °C 34303.6 hPa Calm     59 % 0 mm 104.0 W/m2 CLR
12:28 -3.9 °C -8.7 °C 34279.9 hPa NNE 20.9 km/h 20.9 km/h 59 % 0 mm 258.0 W/m2 CLR
12:33 -3.9 °C -8.7 °C 34303.6 hPa NNW 9 km/h   59 % 0 mm 139.0 W/m2 CLR
12:38 -4 °C -8.6 °C 34293.4 hPa NNE 9 km/h   60 % 0 mm 121.0 W/m2 CLR
12:43 -4 °C -8.6 °C 34303.6 hPa Calm     60 % 0 mm 155.0 W/m2 CLR
12:48 -4 °C -8.6 °C 34303.6 hPa West 10.3 km/h 10.3 km/h 60 % 0 mm 114.0 W/m2 CLR
12:53 -4 °C -8.6 °C 34293.4 hPa Calm     60 % 0 mm 74.0 W/m2 CLR
12:58 -4 °C -8.6 °C 34279.9 hPa North 7.7 km/h 7.7 km/h 60 % 0 mm 111.0 W/m2 CLR
13:03 -4.1 °C -8.5 °C 34279.9 hPa Calm     61 % 0 mm 114.0 W/m2 CLR
13:08 -4.1 °C -8.5 °C 34279.9 hPa NNE 15 km/h 15 km/h 61 % 0 mm 74.0 W/m2 CLR
13:13 -4.1 °C -8.6 °C 34256.2 hPa NNE 17.9 km/h 17.9 km/h 61 % 0 mm 135.0 W/m2 CLR
13:18 -4.1 °C -8.5 °C 34246 hPa North 25.9 km/h 25.9 km/h 61 % 0 mm 243.0 W/m2 CLR
13:23 -4 °C -8.4 °C 34269.7 hPa North 29.8 km/h 29.8 km/h 61 % 0 mm 132.0 W/m2 CLR
13:24 -4 °C -8.4 °C 34269.7 hPa North 29.8 km/h 29.8 km/h 61 % 0 mm 123.0 W/m2 CLR
13:29 -3.9 °C -8.5 °C 34327.3 hPa SW 20.8 km/h 20.8 km/h 60 % 0 mm 102.0 W/m2 CLR
13:34 -3.9 °C -8.5 °C 34279.9 hPa Calm     60 % 0 mm 163.0 W/m2 CLR
13:39 -3.8 °C -8.4 °C 34269.7 hPa NE 15.6 km/h 15.6 km/h 60 % 0 mm 464.0 W/m2 CLR
13:44 -3.6 °C -8.4 °C 34279.9 hPa North 26.9 km/h 26.9 km/h 59 % 0 mm 385.0 W/m2 CLR
13:49 -3.6 °C -8.5 °C 34269.7 hPa NW 17.9 km/h 17.9 km/h 58 % 0 mm 246.0 W/m2 CLR
13:54 -3.6 °C -8.6 °C 34279.9 hPa NNW 10.3 km/h 10.3 km/h 58 % 0 mm 276.0 W/m2 CLR
13:59 -3.6 °C -8.5 °C 34293.4 hPa Calm     58 % 0 mm 220.0 W/m2 CLR
14:04 -3.6 °C -8.6 °C 34293.4 hPa NW 11.9 km/h 11.9 km/h 58 % 0 mm 113.0 W/m2 CLR
14:09 -3.7 °C -8.4 °C 34313.7 hPa South 11.9 km/h 11.9 km/h 59 % 0 mm 74.0 W/m2 CLR
14:14 -3.6 °C -8.4 °C 34279.9 hPa Calm     59 % 0 mm 197.0 W/m2 CLR
14:19 -3.5 °C -8.4 °C 34256.2 hPa NNE 15 km/h 15 km/h 58 % 0 mm 485.0 W/m2 CLR
14:24 -3.3 °C -8.2 °C 34279.9 hPa NE 12.9 km/h 12.9 km/h 58 % 0 mm 504.0 W/m2 CLR
14:29 -3.2 °C -8.3 °C 34293.4 hPa NE 11.9 km/h 11.9 km/h 57 % 0 mm 287.0 W/m2 CLR
14:34 -3.2 °C -8.3 °C 34293.4 hPa West 9 km/h 9 km/h 57 % 0 mm 227.0 W/m2 CLR
14:39 -3.2 °C -8.4 °C 34293.4 hPa Calm     56 % 0 mm 193.0 W/m2 CLR
14:44 -3.2 °C -8.4 °C 34303.6 hPa Calm     56 % 0 mm 162.0 W/m2 CLR
14:49 -3.2 °C -8.3 °C 34303.6 hPa Calm     57 % 0 mm 121.0 W/m2 CLR
14:54 -3.2 °C -8.3 °C 34313.7 hPa Calm     57 % 0 mm 102.0 W/m2 CLR
14:59 -3.2 °C -8.3 °C 34303.6 hPa SE 12.9 km/h 12.9 km/h 57 % 0 mm 74.0 W/m2 CLR
15:04 -3.3 °C -7.9 °C 34293.4 hPa ESE 20.9 km/h 20.9 km/h 60 % 0 mm 81.0 W/m2 FEW
15:09 -3.4 °C -8 °C 34303.6 hPa North 20.9 km/h 20.9 km/h 60 % 0 mm 91.0 W/m2 FEW
15:14 -3.4 °C -8.2 °C 34303.6 hPa ENE 6 km/h 6 km/h 59 % 0 mm 104.0 W/m2 CLR
15:19 -3.4 °C -8.2 °C 34313.7 hPa Calm     59 % 0 mm 137.0 W/m2 CLR
15:24 -3.4 °C -8 °C 34313.7 hPa Calm     60 % 0 mm 100.0 W/m2 CLR
15:29 -3.4 °C -8.2 °C 34313.7 hPa Calm     59 % 0 mm 67.0 W/m2 CLR
15:34 -3.4 °C -8 °C 34293.4 hPa ENE 9 km/h 9 km/h 60 % 0 mm 223.0 W/m2 FEW
15:39 -3.3 °C -7.8 °C 34279.9 hPa ENE 15 km/h 15 km/h 61 % 0 mm 666.0 W/m2 CLR
15:40 -3.3 °C -7.9 °C 34279.9 hPa ENE 15 km/h 15 km/h 60 % 0 mm 443.0 W/m2 CLR
15:45 -3.1 °C -7.8 °C 34279.9 hPa ENE 12.9 km/h 12.9 km/h 60 % 0 mm 816.0 W/m2 CLR
15:50 -2.8 °C -7.9 °C 34269.7 hPa NNE 17.9 km/h 17.9 km/h 57 % 0 mm 462.0 W/m2 CLR
15:55 -2.7 °C -8 °C 34279.9 hPa NNW 23.8 km/h 23.8 km/h 56 % 0 mm 301.0 W/m2 CLR
16:00 -2.6 °C -7.9 °C 34269.7 hPa ENE 12.9 km/h 12.9 km/h 56 % 0 mm 399.0 W/m2 CLR
16:05 -2.5 °C -7.9 °C 34269.7 hPa NE 2.6 km/h 2.6 km/h 55 % 0 mm 366.0 W/m2 CLR
16:10 -2.4 °C -7.9 °C 34279.9 hPa NE 15 km/h 15 km/h 55 % 0 mm 434.0 W/m2 CLR
16:15 -2.2 °C -7.7 °C 34279.9 hPa ENE 15 km/h 15 km/h 55 % 0 mm 348.0 W/m2 CLR
16:20 -2.1 °C -7.7 °C 34279.9 hPa ENE 15.6 km/h 15.6 km/h 54 % 0 mm 330.0 W/m2 CLR
16:25 -2.1 °C -7.4 °C 34279.9 hPa East 9 km/h 9 km/h 56 % 0 mm 371.0 W/m2 CLR
16:30 -2.2 °C -7.6 °C 34279.9 hPa ENE 11.9 km/h 11.9 km/h 56 % 0 mm 420.0 W/m2 CLR
16:35 -2.2 °C -7.7 °C 34293.4 hPa ENE 11.9 km/h 11.9 km/h 55 % 0 mm 471.0 W/m2 CLR
16:40 -2.1 °C -7.9 °C 34279.9 hPa ENE 15 km/h 15 km/h 53 % 0 mm 288.0 W/m2 CLR
16:45 -2.1 °C -7.7 °C 34293.4 hPa NE 6 km/h   54 % 0 mm 241.0 W/m2 CLR
16:50 -2.2 °C -7.7 °C 34279.9 hPa ENE 15 km/h 15 km/h 55 % 0 mm 135.0 W/m2 CLR
16:55 -2.3 °C -7.8 °C 34279.9 hPa Calm     55 % 0 mm 93.0 W/m2 CLR
17:00 -2.3 °C -7.7 °C 34269.7 hPa ENE 17.9 km/h 17.9 km/h 56 % 0 mm 90.0 W/m2 CLR
17:05 -2.4 °C -7.7 °C 34269.7 hPa NNE 9 km/h 9 km/h 56 % 0 mm 102.0 W/m2 CLR
17:10 -2.4 °C -7.8 °C 34279.9 hPa NE 6 km/h 6 km/h 56 % 0 mm 132.0 W/m2 CLR
17:15 -2.4 °C -7.7 °C 34269.7 hPa North 12.9 km/h 12.9 km/h 56 % 0 mm 192.0 W/m2 CLR
17:19 -2.3 °C -7.7 °C 34279.9 hPa NE 17.9 km/h 17.9 km/h 56 % 0 mm 251.0 W/m2 CLR
17:20 -2.3 °C -7.7 °C 34279.9 hPa NE 17.9 km/h 17.9 km/h 56 % 0 mm 251.0 W/m2 CLR
17:25 -2.3 °C -7.7 °C 34279.9 hPa NE 17.9 km/h 17.9 km/h 56 % 0 mm 251.0 W/m2 CLR
17:30 -2.3 °C -7.7 °C 34269.7 hPa NE 20.9 km/h 20.9 km/h 56 % 0 mm 251.0 W/m2 CLR
17:35 -2.2 °C -7.7 °C 34256.2 hPa Calm   0.3 km/h 55 % 0 mm 294.0 W/m2 CLR
17:40 -2.2 °C -7.7 °C 34256.2 hPa Calm     55 % 0 mm 373.0 W/m2 CLR
17:45 -2 °C -7.7 °C 34246 hPa Calm     54 % 0 mm 329.0 W/m2 CLR
17:50 -1.8 °C -7.5 °C 34246 hPa Calm     54 % 0 mm 294.0 W/m2 CLR
17:55 -1.7 °C -7.6 °C 34246 hPa Calm     53 % 0 mm 250.0 W/m2 CLR
18:00 -1.6 °C -7.6 °C 34235.8 hPa Calm     52 % 0 mm 192.0 W/m2 CLR
18:05 -1.6 °C -7.4 °C 34235.8 hPa Calm     53 % 0 mm 190.0 W/m2 CLR
18:10 -1.5 °C -7.4 °C 34235.8 hPa Calm     53 % 0 mm 338.0 W/m2 CLR
18:15 -1.3 °C -7.2 °C 34235.8 hPa Calm     53 % 0 mm 373.0 W/m2 CLR
18:16 -1.3 °C -7.3 °C 34235.8 hPa Calm     52 % 0 mm 422.0 W/m2 CLR
18:21 -1.1 °C -7 °C 34235.8 hPa Calm   0.3 km/h 53 % 0 mm 357.0 W/m2 CLR
18:26 -1.1 °C -6.8 °C 34222.3 hPa East 12.9 km/h 12.9 km/h 54 % 0 mm 339.0 W/m2 CLR
18:31 -1.1 °C -6.8 °C 34235.8 hPa East 9 km/h 9 km/h 54 % 0 mm 221.0 W/m2 CLR
18:36 -1.1 °C -6.8 °C 34222.3 hPa ENE 9 km/h   54 % 0 mm 341.0 W/m2 CLR
18:41 -1 °C -6.9 °C 34235.8 hPa Calm     53 % 0 mm 471.0 W/m2 CLR
18:46 -0.8 °C -6.9 °C 34235.8 hPa Calm     52 % 0 mm 346.0 W/m2 CLR
18:51 -0.6 °C -7.2 °C 34235.8 hPa Calm     49 % 0 mm 452.0 W/m2 CLR
18:56 -0.4 °C -7.3 °C 34235.8 hPa Calm     48 % 0 mm 394.0 W/m2 CLR
19:01 -0.3 °C -7.3 °C 34235.8 hPa Calm     47 % 0 mm 334.0 W/m2 CLR
19:06 -0.2 °C -7.4 °C 34235.8 hPa Calm   1 km/h 46 % 0 mm 151.0 W/m2 CLR
19:11 -0.2 °C -7.3 °C 34235.8 hPa Calm   0.3 km/h 47 % 0 mm 128.0 W/m2 CLR
19:16 -0.3 °C -6.6 °C 34235.8 hPa ESE 15 km/h 15 km/h 51 % 0 mm 311.0 W/m2 CLR
19:21 -0.3 °C -6.3 °C 34222.3 hPa ESE 12.9 km/h 12.9 km/h 53 % 0 mm 278.0 W/m2 CLR
19:26 -0.6 °C -6 °C 34222.3 hPa ESE 26.9 km/h 26.9 km/h 56 % 0 mm 165.0 W/m2 CLR
19:31 -0.7 °C -6 °C 34222.3 hPa ESE 18.2 km/h 18.2 km/h 57 % 0 mm 248.0 W/m2 CLR
19:36 -0.7 °C -6.1 °C 34222.3 hPa SE 20.9 km/h 20.9 km/h 56 % 0 mm 279.0 W/m2 CLR
19:41 -0.6 °C -6.2 °C 34222.3 hPa ESE 29.8 km/h 29.8 km/h 55 % 0 mm 243.0 W/m2 CLR
19:46 -0.6 °C -6 °C 34235.8 hPa SSE 29.8 km/h 29.8 km/h 56 % 0 mm 211.0 W/m2 CLR
19:51 -0.5 °C -6.3 °C 34235.8 hPa SSE 26.9 km/h 26.9 km/h 54 % 0 mm 197.0 W/m2 CLR
19:56 -0.4 °C -6.5 °C 34235.8 hPa SE 29.8 km/h 29.8 km/h 52 % 0 mm 188.0 W/m2 CLR
20:01 -0.2 °C -6.9 °C 34235.8 hPa SSE 9 km/h 9.8 km/h 49 % 0 mm 155.0 W/m2 CLR
20:06 0 °C -7.1 °C 34235.8 hPa SSE 20.9 km/h 20.9 km/h 47 % 0 mm 142.0 W/m2 CLR
20:11 0.2 °C -8.3 °C 34235.8 hPa SSE 38.8 km/h 38.8 km/h 40 % 0 mm 113.0 W/m2 CLR
20:16 0.4 °C -8.8 °C 34235.8 hPa SSE 33.6 km/h 33.6 km/h 37 % 0 mm 91.0 W/m2 CLR
20:22 0.4 °C -8.8 °C 34235.8 hPa South 44.7 km/h 44.7 km/h 37 % 0 mm 77.0 W/m2 FEW
20:27 0.3 °C -8.7 °C 34246 hPa South 44.7 km/h 44.7 km/h 38 % 0 mm 67.0 W/m2 FEW
20:32 0.2 °C -8.6 °C 34246 hPa South 35.7 km/h 35.7 km/h 39 % 0 mm 58.0 W/m2 SCT
20:37 0 °C -8.5 °C 34256.2 hPa South 29.8 km/h 29.8 km/h 40 % 0 mm 49.0 W/m2 SCT
20:42 -0.1 °C -8.4 °C 34256.2 hPa South 41.7 km/h 41.7 km/h 41 % 0 mm 42.0 W/m2 BKN
20:47 -0.2 °C -8.5 °C 34256.2 hPa South 32.8 km/h 32.8 km/h 41 % 0 mm 33.0 W/m2 BKN
20:52 -0.4 °C -8.4 °C 34256.2 hPa South 17.9 km/h 17.9 km/h 42 % 0 mm 26.0 W/m2 BKN
20:57 -0.5 °C -8.3 °C 34269.7 hPa South 20.9 km/h 20.9 km/h 43 % 0 mm 21.0 W/m2 BKN
21:02 -0.7 °C -8.2 °C 34269.7 hPa SE 17.9 km/h 17.9 km/h 44 % 0 mm 18.0 W/m2 BKN
21:07 -0.8 °C -8.2 °C 34269.7 hPa South 9 km/h 9 km/h 45 % 0 mm 12.0 W/m2 BKN
21:12 -0.9 °C -8.1 °C 34279.9 hPa SSW 9 km/h 9 km/h 46 % 0 mm 5.0 W/m2 BKN
21:17 -0.9 °C -8.1 °C 34293.4 hPa Calm     46 % 0 mm 0.0 W/m2 OVC
21:20 -1 °C -8.2 °C 34293.4 hPa Calm   0.5 km/h 46 % 0 mm 0.0 W/m2 OVC
21:22 -1.1 °C -8.2 °C 34293.4 hPa Calm     46 % 0 mm 0.0 W/m2 OVC
21:27 -1.1 °C -8.1 °C 34293.4 hPa Calm     47 % 0 mm 0.0 W/m2 CLR
21:32 -1.2 °C -8.4 °C 34303.6 hPa South 10.3 km/h 10.3 km/h 46 % 0 mm 0.0 W/m2 CLR
21:37 -1.3 °C -8.4 °C 34313.7 hPa SE 9 km/h 9 km/h 46 % 0 mm 0.0 W/m2 CLR
21:42 -1.3 °C -8.4 °C 34313.7 hPa Calm     46 % 0 mm 0.0 W/m2 CLR
21:47 -1.3 °C -8.5 °C 34313.7 hPa SSW 12.9 km/h 12.9 km/h 46 % 0 mm 0.0 W/m2 CLR
21:52 -1.3 °C -8.7 °C 34313.7 hPa Calm     45 % 0 mm 0.0 W/m2 CLR
21:57 -1.4 °C -8.7 °C 34313.7 hPa South 17.9 km/h 17.9 km/h 45 % 0 mm 0.0 W/m2 CLR
22:02 -1.4 °C -8.8 °C 34327.3 hPa South 20.9 km/h 20.9 km/h 45 % 0 mm 0.0 W/m2 CLR
22:07 -1.5 °C -8.7 °C 34327.3 hPa Calm     46 % 0 mm 0.0 W/m2 CLR
22:09 -1.6 °C -8.7 °C 34327.3 hPa South 15 km/h 15 km/h 46 % 0 mm 0.0 W/m2 CLR
22:10 -1.6 °C -8.7 °C 34327.3 hPa South 15 km/h 15 km/h 46 % 0 mm 0.0 W/m2 CLR
22:15 -1.6 °C -8.7 °C 34327.3 hPa Calm     46 % 0 mm 0.0 W/m2 CLR
22:18 -1.6 °C -8.6 °C 34327.3 hPa South 20.9 km/h 20.9 km/h 47 % 0 mm 0.0 W/m2 CLR
22:20 -1.6 °C -8.6 °C 34337.4 hPa South 26.9 km/h 26.9 km/h 47 % 0 mm 0.0 W/m2 CLR
22:25 -1.6 °C -8.6 °C 34337.4 hPa South 41.4 km/h 41.4 km/h 47 % 0 mm 0.0 W/m2 CLR
22:30 -1.6 °C -8.4 °C 34337.4 hPa SSW 38.8 km/h 38.8 km/h 48 % 0 mm 0.0 W/m2 CLR
22:35 -1.6 °C -8.3 °C 34347.6 hPa SSW 23.8 km/h 23.8 km/h 48 % 0 mm 0.0 W/m2 CLR
22:40 -1.6 °C -8.4 °C 34347.6 hPa SSW 29.8 km/h 29.8 km/h 48 % 0 mm 0.0 W/m2 CLR
22:45 -1.7 °C -8.4 °C 34347.6 hPa South 26.9 km/h 26.9 km/h 48 % 0 mm 0.0 W/m2 CLR
22:50 -1.7 °C -8.6 °C 34347.6 hPa SSW 12.9 km/h 12.9 km/h 47 % 0 mm 0.0 W/m2 CLR
22:55 -1.7 °C -8.6 °C 34347.6 hPa South 26.9 km/h 26.9 km/h 47 % 0 mm 0.0 W/m2 CLR
23:00 -1.7 °C -8.8 °C 34347.6 hPa South 7.7 km/h 7.7 km/h 46 % 0 mm 0.0 W/m2 CLR
23:05 -1.6 °C -8.9 °C 34347.6 hPa Calm     45 % 0 mm 0.0 W/m2 CLR
23:10 -1.6 °C -8.9 °C 34361.1 hPa Calm     45 % 0 mm 0.0 W/m2 CLR
23:15 -1.7 °C -8.8 °C 34361.1 hPa Calm     46 % 0 mm 0.0 W/m2 CLR
23:20 -1.8 °C -8.8 °C 34371.3 hPa Calm     46 % 0 mm 0.0 W/m2 CLR
23:25 -2 °C -8.7 °C 34371.3 hPa Calm     48 % 0 mm 0.0 W/m2 CLR
23:30 -2.3 °C -8.4 °C 34371.3 hPa Calm     51 % 0 mm 0.0 W/m2 CLR
23:35 -2.6 °C -8.3 °C 34371.3 hPa Calm     53 % 0 mm 0.0 W/m2 CLR
23:40 -2.7 °C -8.4 °C 34371.3 hPa ESE 9 km/h 9 km/h 53 % 0 mm 0.0 W/m2 CLR
23:45 -2.7 °C -8.3 °C 34384.8 hPa Calm     54 % 0 mm 0.0 W/m2 CLR
23:50 -2.8 °C -8.6 °C 34384.8 hPa South 9 km/h 9 km/h 53 % 0 mm 0.0 W/m2 CLR
23:55 -2.6 °C -9 °C 34384.8 hPa SSE 26.9 km/h 26.9 km/h 49 % 0 mm 0.0 W/m2 CLR
Lo Temps de Massalio
Compliments of Weather Underground - 1.25 mb